Gakona, Alaska
Current Conditions -  °F | °C
As of 1:53 AM on Thursday 18 Dec 2014 (Local Time) from PAOR Reporting Station
Clear Clear  
Wind Chill: -20°   Ceiling: Unl
Heat Index: -20°   Visibility: 10mi
Dew Point: -26°   Wind: 0mph
Humidity: 74%   Direction: NA
Pressure: 29.68"   Gusts: NA
Location:  62.43°N, 142.97°W
Report Text: PAOR 181053Z 00000KT 10SM CLR M29/M32 A2968 RMK AO2 SLP133 T12891322
Loading
Personal Weather Stations






























Interactive Weather Map New forecast layout! Learn more

10-Day Weather Forecast

Advertisements
Track Severe Weather on mobile